首页
METAR-TAF:

METAR-TAF

机场 :

图诺什纳机场

雅罗斯拉夫尔, 俄罗斯

纬度: 57-33-38N, 经度: 040-09-27E, 海拔: 87米

当前天气观测

该预报发布于15分钟前的22:30 UTC
静风
温度 9°C
湿度 100%
气压 1014 hPa
能見度: 0400

METAR: UUDL 262230Z 00000MPS 0500 0400NE R23/1000N FG VV003 09/09 Q1014 R23/010060 NOSIG RMK QBB090 QFE752

时间: 01:45 (22:45 UTC)

预报

该预报发布于2小时和45分钟前的20:00 UTC
预报有效从26日的 21点(UTC)到 27日的 21点(UTC)
风速2节,风向多变
能見度: 3100
少量云层高于400英尺
多云层高于1600英尺
轻雾, 浅雾
短暂存在
从 26日的 21点(UTC)到 27日的 04点(UTC)
能見度: 0400
层高于200英尺
从 27日的 0600点(UTC)
风速6节,风向
能見度: 6000
多云层高于1100英尺

TAF: UUDL 262000Z 2621/2721 VRB01MPS 3100 BR MIFG FEW004 BKN016 TEMPO 2621/2704 0400 FG VV002 FM270600 10003MPS 6000 BKN011

超过4000个机场的气象观测和天气预报(METAR&TAF报告)。

可查询的气象台以黄色和红色小点在地图上表示。

将鼠标移到小点上方,可查看气象台名称。

然后点击查看天气观测和预报。

如需切换地图:点击带黑十字的绿色按钮放大地图;点击带横线的绿色按钮缩小地图;或者点击绿色箭头查看邻近地区的地图。


METAR-TAF: